sensor_id;sensor_type;location;lat;lon;timestamp;P1;durP1;ratioP1;P2;durP2;ratioP2
40511;SDS011;26213;52.446;20.706;2022-12-11T00:01:55;54.05;;;24.13;;
40511;SDS011;26213;52.446;20.706;2022-12-11T00:04:21;49.67;;;25.38;;
40511;SDS011;26213;52.446;20.706;2022-12-11T00:06:47;55.33;;;27.02;;
40511;SDS011;26213;52.446;20.706;2022-12-11T00:09:16;48.50;;;22.60;;
40511;SDS011;26213;52.446;20.706;2022-12-11T00:11:42;52.72;;;24.27;;
40511;SDS011;26213;52.446;20.706;2022-12-11T00:14:09;47.03;;;23.77;;
40511;SDS011;26213;52.446;20.706;2022-12-11T00:16:34;50.80;;;24.50;;
40511;SDS011;26213;52.446;20.706;2022-12-11T00:19:00;48.63;;;23.70;;
40511;SDS011;26213;52.446;20.706;2022-12-11T00:21:25;52.55;;;24.27;;
40511;SDS011;26213;52.446;20.706;2022-12-11T00:23:51;48.38;;;23.48;;
40511;SDS011;26213;52.446;20.706;2022-12-11T00:26:16;53.67;;;22.42;;
40511;SDS011;26213;52.446;20.706;2022-12-11T00:28:42;54.35;;;22.17;;
40511;SDS011;26213;52.446;20.706;2022-12-11T00:31:10;60.72;;;27.20;;
40511;SDS011;26213;52.446;20.706;2022-12-11T00:33:38;45.13;;;20.85;;
40511;SDS011;26213;52.446;20.706;2022-12-11T00:36:08;49.05;;;20.20;;
40511;SDS011;26213;52.446;20.706;2022-12-11T00:38:38;49.47;;;20.75;;
40511;SDS011;26213;52.446;20.706;2022-12-11T00:41:04;47.90;;;21.90;;
40511;SDS011;26213;52.446;20.706;2022-12-11T00:43:29;48.33;;;22.27;;
40511;SDS011;26213;52.446;20.706;2022-12-11T00:45:54;46.63;;;22.88;;
40511;SDS011;26213;52.446;20.706;2022-12-11T00:48:20;62.67;;;26.65;;
40511;SDS011;26213;52.446;20.706;2022-12-11T00:50:45;50.10;;;20.58;;
40511;SDS011;26213;52.446;20.706;2022-12-11T00:53:11;55.72;;;23.95;;
40511;SDS011;26213;52.446;20.706;2022-12-11T00:55:37;62.95;;;23.58;;
40511;SDS011;26213;52.446;20.706;2022-12-11T00:58:03;53.72;;;23.67;;
40511;SDS011;26213;52.446;20.706;2022-12-11T01:00:29;51.63;;;23.23;;
40511;SDS011;26213;52.446;20.706;2022-12-11T01:02:54;47.92;;;20.58;;
40511;SDS011;26213;52.446;20.706;2022-12-11T01:05:20;53.38;;;24.55;;
40511;SDS011;26213;52.446;20.706;2022-12-11T01:07:45;61.58;;;27.10;;
40511;SDS011;26213;52.446;20.706;2022-12-11T01:10:11;58.83;;;23.65;;
40511;SDS011;26213;52.446;20.706;2022-12-11T01:12:53;56.60;;;22.80;;
40511;SDS011;26213;52.446;20.706;2022-12-11T01:15:24;58.10;;;24.60;;
40511;SDS011;26213;52.446;20.706;2022-12-11T01:20:16;62.40;;;26.73;;
40511;SDS011;26213;52.446;20.706;2022-12-11T01:22:43;57.07;;;23.53;;
40511;SDS011;26213;52.446;20.706;2022-12-11T01:25:09;54.53;;;23.52;;
40511;SDS011;26213;52.446;20.706;2022-12-11T01:27:35;57.72;;;26.27;;
40511;SDS011;26213;52.446;20.706;2022-12-11T01:30:01;54.28;;;23.50;;
40511;SDS011;26213;52.446;20.706;2022-12-11T01:32:28;49.25;;;19.80;;
40511;SDS011;26213;52.446;20.706;2022-12-11T01:34:53;49.65;;;21.52;;
40511;SDS011;26213;52.446;20.706;2022-12-11T01:37:19;95.13;;;35.65;;
40511;SDS011;26213;52.446;20.706;2022-12-11T01:39:45;64.20;;;25.13;;
40511;SDS011;26213;52.446;20.706;2022-12-11T01:42:14;58.20;;;22.13;;
40511;SDS011;26213;52.446;20.706;2022-12-11T01:47:09;47.05;;;20.02;;
40511;SDS011;26213;52.446;20.706;2022-12-11T01:49:35;33.88;;;16.42;;
40511;SDS011;26213;52.446;20.706;2022-12-11T01:52:08;44.50;;;19.40;;
40511;SDS011;26213;52.446;20.706;2022-12-11T01:54:36;52.85;;;20.27;;
40511;SDS011;26213;52.446;20.706;2022-12-11T01:57:03;41.50;;;17.38;;
40511;SDS011;26213;52.446;20.706;2022-12-11T01:59:31;44.17;;;17.95;;
40511;SDS011;26213;52.446;20.706;2022-12-11T02:04:43;47.70;;;21.45;;
40511;SDS011;26213;52.446;20.706;2022-12-11T02:07:10;48.88;;;20.23;;
40511;SDS011;26213;52.446;20.706;2022-12-11T02:09:36;38.35;;;17.92;;
40511;SDS011;26213;52.446;20.706;2022-12-11T02:15:05;46.45;;;19.27;;
40511;SDS011;26213;52.446;20.706;2022-12-11T02:20:07;42.72;;;16.67;;
40511;SDS011;26213;52.446;20.706;2022-12-11T02:22:52;41.33;;;17.42;;
40511;SDS011;26213;52.446;20.706;2022-12-11T02:26:05;45.55;;;20.02;;
40511;SDS011;26213;52.446;20.706;2022-12-11T02:28:39;48.35;;;22.35;;
40511;SDS011;26213;52.446;20.706;2022-12-11T02:34:16;52.22;;;20.45;;
40511;SDS011;26213;52.446;20.706;2022-12-11T02:36:45;46.67;;;18.98;;
40511;SDS011;26213;52.446;20.706;2022-12-11T02:39:13;51.05;;;21.45;;
40511;SDS011;26213;52.446;20.706;2022-12-11T02:41:41;53.67;;;21.23;;
40511;SDS011;26213;52.446;20.706;2022-12-11T02:44:09;48.15;;;20.52;;
40511;SDS011;26213;52.446;20.706;2022-12-11T02:46:36;42.97;;;18.85;;
40511;SDS011;26213;52.446;20.706;2022-12-11T02:49:02;48.58;;;19.70;;
40511;SDS011;26213;52.446;20.706;2022-12-11T02:51:30;41.10;;;18.10;;
40511;SDS011;26213;52.446;20.706;2022-12-11T02:54:00;49.97;;;21.05;;
40511;SDS011;26213;52.446;20.706;2022-12-11T02:56:33;43.20;;;19.95;;
40511;SDS011;26213;52.446;20.706;2022-12-11T02:59:05;49.83;;;19.48;;
40511;SDS011;26213;52.446;20.706;2022-12-11T03:01:33;45.05;;;20.15;;
40511;SDS011;26213;52.446;20.706;2022-12-11T03:03:59;42.70;;;18.23;;
40511;SDS011;26213;52.446;20.706;2022-12-11T03:06:26;47.38;;;19.83;;
40511;SDS011;26213;52.446;20.706;2022-12-11T03:08:56;40.90;;;19.52;;
40511;SDS011;26213;52.446;20.706;2022-12-11T03:11:21;43.13;;;18.95;;
40511;SDS011;26213;52.446;20.706;2022-12-11T03:13:47;43.30;;;18.90;;
40511;SDS011;26213;52.446;20.706;2022-12-11T03:19:05;43.03;;;18.77;;
40511;SDS011;26213;52.446;20.706;2022-12-11T03:24:52;52.15;;;17.92;;
40511;SDS011;26213;52.446;20.706;2022-12-11T03:27:35;43.28;;;19.58;;
40511;SDS011;26213;52.446;20.706;2022-12-11T03:30:06;58.85;;;22.15;;
40511;SDS011;26213;52.446;20.706;2022-12-11T03:32:35;46.25;;;18.52;;
40511;SDS011;26213;52.446;20.706;2022-12-11T03:35:08;47.28;;;17.33;;
40511;SDS011;26213;52.446;20.706;2022-12-11T03:37:38;48.40;;;18.90;;
40511;SDS011;26213;52.446;20.706;2022-12-11T03:40:06;38.92;;;17.60;;
40511;SDS011;26213;52.446;20.706;2022-12-11T03:42:37;45.65;;;17.95;;
40511;SDS011;26213;52.446;20.706;2022-12-11T03:45:03;44.35;;;17.75;;
40511;SDS011;26213;52.446;20.706;2022-12-11T03:47:30;37.72;;;16.33;;
40511;SDS011;26213;52.446;20.706;2022-12-11T03:49:57;47.40;;;18.58;;
40511;SDS011;26213;52.446;20.706;2022-12-11T03:52:24;29.25;;;13.93;;
40511;SDS011;26213;52.446;20.706;2022-12-11T03:54:51;38.45;;;16.42;;
40511;SDS011;26213;52.446;20.706;2022-12-11T03:57:18;38.70;;;16.63;;
40511;SDS011;26213;52.446;20.706;2022-12-11T03:59:46;38.67;;;15.15;;
40511;SDS011;26213;52.446;20.706;2022-12-11T04:02:12;41.58;;;14.98;;
40511;SDS011;26213;52.446;20.706;2022-12-11T04:04:38;34.42;;;15.57;;
40511;SDS011;26213;52.446;20.706;2022-12-11T04:07:05;40.10;;;17.48;;
40511;SDS011;26213;52.446;20.706;2022-12-11T04:09:30;39.80;;;16.42;;
40511;SDS011;26213;52.446;20.706;2022-12-11T04:11:56;39.13;;;16.40;;
40511;SDS011;26213;52.446;20.706;2022-12-11T04:14:21;36.25;;;15.82;;
40511;SDS011;26213;52.446;20.706;2022-12-11T04:17:05;38.20;;;17.00;;
40511;SDS011;26213;52.446;20.706;2022-12-11T04:19:31;36.00;;;16.88;;
40511;SDS011;26213;52.446;20.706;2022-12-11T04:22:16;33.85;;;15.82;;
40511;SDS011;26213;52.446;20.706;2022-12-11T04:24:51;41.78;;;17.38;;
40511;SDS011;26213;52.446;20.706;2022-12-11T04:27:16;37.85;;;17.45;;
40511;SDS011;26213;52.446;20.706;2022-12-11T04:30:06;45.15;;;17.83;;
40511;SDS011;26213;52.446;20.706;2022-12-11T04:32:34;42.10;;;17.83;;
40511;SDS011;26213;52.446;20.706;2022-12-11T04:34:59;76.43;;;23.73;;
40511;SDS011;26213;52.446;20.706;2022-12-11T04:37:25;52.47;;;18.52;;
40511;SDS011;26213;52.446;20.706;2022-12-11T04:39:51;53.03;;;18.48;;
40511;SDS011;26213;52.446;20.706;2022-12-11T04:42:17;55.10;;;18.27;;
40511;SDS011;26213;52.446;20.706;2022-12-11T04:44:42;54.08;;;24.13;;
40511;SDS011;26213;52.446;20.706;2022-12-11T04:47:09;45.83;;;17.70;;
40511;SDS011;26213;52.446;20.706;2022-12-11T04:49:34;55.25;;;22.30;;
40511;SDS011;26213;52.446;20.706;2022-12-11T04:52:00;54.78;;;23.88;;
40511;SDS011;26213;52.446;20.706;2022-12-11T04:54:27;55.30;;;20.40;;
40511;SDS011;26213;52.446;20.706;2022-12-11T04:56:53;50.97;;;23.35;;
40511;SDS011;26213;52.446;20.706;2022-12-11T04:59:19;44.72;;;18.38;;
40511;SDS011;26213;52.446;20.706;2022-12-11T05:01:44;50.70;;;18.08;;
40511;SDS011;26213;52.446;20.706;2022-12-11T05:04:09;50.47;;;20.25;;
40511;SDS011;26213;52.446;20.706;2022-12-11T05:06:35;49.58;;;19.15;;
40511;SDS011;26213;52.446;20.706;2022-12-11T05:09:00;43.30;;;18.65;;
40511;SDS011;26213;52.446;20.706;2022-12-11T05:11:26;49.97;;;20.27;;
40511;SDS011;26213;52.446;20.706;2022-12-11T05:13:52;38.35;;;17.52;;
40511;SDS011;26213;52.446;20.706;2022-12-11T05:16:17;45.60;;;19.15;;
40511;SDS011;26213;52.446;20.706;2022-12-11T05:18:42;48.33;;;19.25;;
40511;SDS011;26213;52.446;20.706;2022-12-11T05:21:09;44.70;;;19.98;;
40511;SDS011;26213;52.446;20.706;2022-12-11T05:23:35;46.13;;;20.10;;
40511;SDS011;26213;52.446;20.706;2022-12-11T05:26:02;50.78;;;19.25;;
40511;SDS011;26213;52.446;20.706;2022-12-11T05:28:30;51.63;;;18.63;;
40511;SDS011;26213;52.446;20.706;2022-12-11T05:30:57;41.22;;;15.23;;
40511;SDS011;26213;52.446;20.706;2022-12-11T05:33:24;40.83;;;17.60;;
40511;SDS011;26213;52.446;20.706;2022-12-11T05:35:49;40.97;;;18.58;;
40511;SDS011;26213;52.446;20.706;2022-12-11T05:38:15;41.25;;;16.95;;
40511;SDS011;26213;52.446;20.706;2022-12-11T05:40:40;36.72;;;15.20;;
40511;SDS011;26213;52.446;20.706;2022-12-11T05:43:06;43.45;;;16.48;;
40511;SDS011;26213;52.446;20.706;2022-12-11T05:45:32;47.70;;;17.35;;
40511;SDS011;26213;52.446;20.706;2022-12-11T05:47:58;39.08;;;16.38;;
40511;SDS011;26213;52.446;20.706;2022-12-11T05:50:24;37.05;;;16.80;;
40511;SDS011;26213;52.446;20.706;2022-12-11T05:52:49;37.40;;;15.82;;
40511;SDS011;26213;52.446;20.706;2022-12-11T05:55:15;32.20;;;14.80;;
40511;SDS011;26213;52.446;20.706;2022-12-11T05:57:40;33.88;;;15.75;;
40511;SDS011;26213;52.446;20.706;2022-12-11T06:00:06;34.50;;;14.70;;
40511;SDS011;26213;52.446;20.706;2022-12-11T06:02:36;31.48;;;13.82;;
40511;SDS011;26213;52.446;20.706;2022-12-11T06:05:01;35.47;;;14.52;;
40511;SDS011;26213;52.446;20.706;2022-12-11T06:07:27;42.15;;;15.75;;
40511;SDS011;26213;52.446;20.706;2022-12-11T06:09:52;39.20;;;15.27;;
40511;SDS011;26213;52.446;20.706;2022-12-11T06:12:18;39.55;;;16.92;;
40511;SDS011;26213;52.446;20.706;2022-12-11T06:14:43;32.20;;;15.07;;
40511;SDS011;26213;52.446;20.706;2022-12-11T06:17:09;34.05;;;14.75;;
40511;SDS011;26213;52.446;20.706;2022-12-11T06:19:34;30.05;;;12.60;;
40511;SDS011;26213;52.446;20.706;2022-12-11T06:21:59;29.90;;;12.38;;
40511;SDS011;26213;52.446;20.706;2022-12-11T06:24:25;27.83;;;12.38;;
40511;SDS011;26213;52.446;20.706;2022-12-11T06:26:50;45.28;;;20.77;;
40511;SDS011;26213;52.446;20.706;2022-12-11T06:29:16;107.93;;;48.53;;
40511;SDS011;26213;52.446;20.706;2022-12-11T06:31:42;69.95;;;33.58;;
40511;SDS011;26213;52.446;20.706;2022-12-11T06:34:07;41.72;;;18.45;;
40511;SDS011;26213;52.446;20.706;2022-12-11T06:36:33;29.73;;;13.18;;
40511;SDS011;26213;52.446;20.706;2022-12-11T06:38:58;39.15;;;16.27;;
40511;SDS011;26213;52.446;20.706;2022-12-11T06:41:24;48.70;;;18.05;;
40511;SDS011;26213;52.446;20.706;2022-12-11T06:43:49;36.42;;;16.58;;
40511;SDS011;26213;52.446;20.706;2022-12-11T06:46:16;30.77;;;14.15;;
40511;SDS011;26213;52.446;20.706;2022-12-11T06:48:42;29.25;;;14.98;;
40511;SDS011;26213;52.446;20.706;2022-12-11T06:51:12;37.17;;;13.60;;
40511;SDS011;26213;52.446;20.706;2022-12-11T06:53:39;26.98;;;11.38;;
40511;SDS011;26213;52.446;20.706;2022-12-11T06:56:09;28.60;;;11.27;;
40511;SDS011;26213;52.446;20.706;2022-12-11T06:58:36;20.27;;;10.00;;
40511;SDS011;26213;52.446;20.706;2022-12-11T07:01:03;30.60;;;13.38;;
40511;SDS011;26213;52.446;20.706;2022-12-11T07:03:29;26.05;;;12.15;;
40511;SDS011;26213;52.446;20.706;2022-12-11T07:05:58;28.85;;;12.23;;
40511;SDS011;26213;52.446;20.706;2022-12-11T07:08:27;29.95;;;14.45;;
40511;SDS011;26213;52.446;20.706;2022-12-11T07:10:53;31.27;;;12.40;;
40511;SDS011;26213;52.446;20.706;2022-12-11T07:13:18;27.88;;;12.55;;
40511;SDS011;26213;52.446;20.706;2022-12-11T07:15:44;32.85;;;14.13;;
40511;SDS011;26213;52.446;20.706;2022-12-11T07:18:09;31.83;;;14.73;;
40511;SDS011;26213;52.446;20.706;2022-12-11T07:20:34;26.17;;;12.20;;
40511;SDS011;26213;52.446;20.706;2022-12-11T07:23:00;23.85;;;11.98;;
40511;SDS011;26213;52.446;20.706;2022-12-11T07:25:25;31.77;;;12.75;;
40511;SDS011;26213;52.446;20.706;2022-12-11T07:27:50;27.05;;;11.90;;
40511;SDS011;26213;52.446;20.706;2022-12-11T07:30:16;28.55;;;12.95;;
40511;SDS011;26213;52.446;20.706;2022-12-11T07:32:41;26.73;;;13.40;;
40511;SDS011;26213;52.446;20.706;2022-12-11T07:35:07;26.48;;;14.40;;
40511;SDS011;26213;52.446;20.706;2022-12-11T07:37:32;29.42;;;14.52;;
40511;SDS011;26213;52.446;20.706;2022-12-11T07:39:58;28.98;;;13.63;;
40511;SDS011;26213;52.446;20.706;2022-12-11T07:42:23;27.58;;;12.00;;
40511;SDS011;26213;52.446;20.706;2022-12-11T07:44:49;29.40;;;13.40;;
40511;SDS011;26213;52.446;20.706;2022-12-11T07:47:14;21.60;;;11.43;;
40511;SDS011;26213;52.446;20.706;2022-12-11T07:49:39;27.65;;;12.48;;
40511;SDS011;26213;52.446;20.706;2022-12-11T07:52:05;27.35;;;12.07;;
40511;SDS011;26213;52.446;20.706;2022-12-11T07:54:30;23.83;;;12.32;;
40511;SDS011;26213;52.446;20.706;2022-12-11T07:56:55;26.45;;;12.35;;
40511;SDS011;26213;52.446;20.706;2022-12-11T07:59:21;28.38;;;12.27;;
40511;SDS011;26213;52.446;20.706;2022-12-11T08:01:46;26.83;;;12.13;;
40511;SDS011;26213;52.446;20.706;2022-12-11T08:04:12;27.88;;;13.93;;
40511;SDS011;26213;52.446;20.706;2022-12-11T08:06:39;27.65;;;13.27;;
40511;SDS011;26213;52.446;20.706;2022-12-11T08:09:10;30.65;;;13.75;;
40511;SDS011;26213;52.446;20.706;2022-12-11T08:11:37;28.13;;;13.57;;
40511;SDS011;26213;52.446;20.706;2022-12-11T08:14:03;40.42;;;17.98;;
40511;SDS011;26213;52.446;20.706;2022-12-11T08:16:30;29.02;;;13.40;;
40511;SDS011;26213;52.446;20.706;2022-12-11T08:18:56;33.13;;;14.30;;
40511;SDS011;26213;52.446;20.706;2022-12-11T08:21:22;45.22;;;17.02;;
40511;SDS011;26213;52.446;20.706;2022-12-11T08:23:49;36.58;;;18.58;;
40511;SDS011;26213;52.446;20.706;2022-12-11T08:26:17;33.45;;;16.13;;
40511;SDS011;26213;52.446;20.706;2022-12-11T08:28:44;40.50;;;18.42;;
40511;SDS011;26213;52.446;20.706;2022-12-11T08:31:10;31.45;;;14.40;;
40511;SDS011;26213;52.446;20.706;2022-12-11T08:33:37;31.58;;;15.35;;
40511;SDS011;26213;52.446;20.706;2022-12-11T08:36:06;39.00;;;16.90;;
40511;SDS011;26213;52.446;20.706;2022-12-11T08:38:35;33.85;;;14.98;;
40511;SDS011;26213;52.446;20.706;2022-12-11T08:43:34;36.25;;;16.58;;
40511;SDS011;26213;52.446;20.706;2022-12-11T08:46:00;36.78;;;16.58;;
40511;SDS011;26213;52.446;20.706;2022-12-11T08:48:25;47.35;;;20.55;;
40511;SDS011;26213;52.446;20.706;2022-12-11T08:50:50;51.55;;;22.05;;
40511;SDS011;26213;52.446;20.706;2022-12-11T08:53:16;44.67;;;19.10;;
40511;SDS011;26213;52.446;20.706;2022-12-11T08:55:41;42.85;;;18.70;;
40511;SDS011;26213;52.446;20.706;2022-12-11T08:58:07;39.47;;;16.58;;
40511;SDS011;26213;52.446;20.706;2022-12-11T09:00:32;42.80;;;19.27;;
40511;SDS011;26213;52.446;20.706;2022-12-11T09:02:58;43.50;;;16.25;;
40511;SDS011;26213;52.446;20.706;2022-12-11T09:05:24;33.63;;;15.85;;
40511;SDS011;26213;52.446;20.706;2022-12-11T09:07:49;37.00;;;17.15;;
40511;SDS011;26213;52.446;20.706;2022-12-11T09:10:15;36.85;;;17.45;;
40511;SDS011;26213;52.446;20.706;2022-12-11T09:12:40;40.10;;;17.40;;
40511;SDS011;26213;52.446;20.706;2022-12-11T09:15:06;38.15;;;16.42;;
40511;SDS011;26213;52.446;20.706;2022-12-11T09:17:33;36.45;;;17.05;;
40511;SDS011;26213;52.446;20.706;2022-12-11T09:19:58;104.53;;;43.90;;
40511;SDS011;26213;52.446;20.706;2022-12-11T09:22:24;41.00;;;18.40;;
40511;SDS011;26213;52.446;20.706;2022-12-11T09:24:49;38.47;;;16.45;;
40511;SDS011;26213;52.446;20.706;2022-12-11T09:27:14;92.40;;;31.08;;
40511;SDS011;26213;52.446;20.706;2022-12-11T09:29:40;51.25;;;21.95;;
40511;SDS011;26213;52.446;20.706;2022-12-11T09:32:05;65.05;;;26.90;;
40511;SDS011;26213;52.446;20.706;2022-12-11T09:34:31;43.67;;;22.83;;
40511;SDS011;26213;52.446;20.706;2022-12-11T09:36:56;38.45;;;17.05;;
40511;SDS011;26213;52.446;20.706;2022-12-11T09:39:22;58.78;;;20.95;;
40511;SDS011;26213;52.446;20.706;2022-12-11T09:44:47;53.05;;;23.10;;
40511;SDS011;26213;52.446;20.706;2022-12-11T09:47:16;50.25;;;28.17;;
40511;SDS011;26213;52.446;20.706;2022-12-11T09:49:45;40.78;;;20.15;;
40511;SDS011;26213;52.446;20.706;2022-12-11T09:52:22;41.03;;;19.27;;
40511;SDS011;26213;52.446;20.706;2022-12-11T09:54:55;40.55;;;16.77;;
40511;SDS011;26213;52.446;20.706;2022-12-11T10:00:13;47.08;;;19.33;;
40511;SDS011;26213;52.446;20.706;2022-12-11T10:05:14;42.22;;;21.67;;
40511;SDS011;26213;52.446;20.706;2022-12-11T10:10:25;37.25;;;16.40;;
40511;SDS011;26213;52.446;20.706;2022-12-11T10:13:16;44.92;;;19.52;;
40511;SDS011;26213;52.446;20.706;2022-12-11T10:15:53;50.30;;;20.55;;
40511;SDS011;26213;52.446;20.706;2022-12-11T10:18:25;60.88;;;23.08;;
40511;SDS011;26213;52.446;20.706;2022-12-11T10:20:52;35.28;;;18.33;;
40511;SDS011;26213;52.446;20.706;2022-12-11T10:23:23;42.35;;;18.05;;
40511;SDS011;26213;52.446;20.706;2022-12-11T10:25:55;40.53;;;18.38;;
40511;SDS011;26213;52.446;20.706;2022-12-11T10:28:35;42.50;;;18.95;;
40511;SDS011;26213;52.446;20.706;2022-12-11T10:34:02;34.22;;;16.80;;
40511;SDS011;26213;52.446;20.706;2022-12-11T10:36:39;36.90;;;16.27;;
40511;SDS011;26213;52.446;20.706;2022-12-11T10:39:18;36.63;;;16.90;;
40511;SDS011;26213;52.446;20.706;2022-12-11T10:41:45;39.05;;;19.05;;
40511;SDS011;26213;52.446;20.706;2022-12-11T10:46:48;39.95;;;18.17;;
40511;SDS011;26213;52.446;20.706;2022-12-11T10:49:31;39.95;;;20.75;;
40511;SDS011;26213;52.446;20.706;2022-12-11T10:51:58;38.65;;;19.52;;
40511;SDS011;26213;52.446;20.706;2022-12-11T10:57:05;41.58;;;19.88;;
40511;SDS011;26213;52.446;20.706;2022-12-11T10:59:37;40.42;;;17.98;;
40511;SDS011;26213;52.446;20.706;2022-12-11T11:02:06;36.50;;;17.52;;
40511;SDS011;26213;52.446;20.706;2022-12-11T11:04:43;40.47;;;20.75;;
40511;SDS011;26213;52.446;20.706;2022-12-11T11:07:17;36.80;;;17.10;;
40511;SDS011;26213;52.446;20.706;2022-12-11T11:09:45;45.50;;;20.77;;
40511;SDS011;26213;52.446;20.706;2022-12-11T11:17:39;36.33;;;18.60;;
40511;SDS011;26213;52.446;20.706;2022-12-11T11:20:11;44.83;;;20.73;;
40511;SDS011;26213;52.446;20.706;2022-12-11T11:22:40;53.88;;;22.92;;
40511;SDS011;26213;52.446;20.706;2022-12-11T11:25:17;37.80;;;20.65;;
40511;SDS011;26213;52.446;20.706;2022-12-11T11:27:47;56.35;;;27.13;;
40511;SDS011;26213;52.446;20.706;2022-12-11T11:30:28;59.13;;;29.85;;
40511;SDS011;26213;52.446;20.706;2022-12-11T11:33:17;53.42;;;29.75;;
40511;SDS011;26213;52.446;20.706;2022-12-11T11:35:52;40.53;;;21.77;;
40511;SDS011;26213;52.446;20.706;2022-12-11T11:38:23;38.60;;;17.73;;
40511;SDS011;26213;52.446;20.706;2022-12-11T11:43:45;44.38;;;19.52;;
40511;SDS011;26213;52.446;20.706;2022-12-11T11:53:59;58.22;;;25.85;;
40511;SDS011;26213;52.446;20.706;2022-12-11T11:56:34;48.83;;;21.13;;
40511;SDS011;26213;52.446;20.706;2022-12-11T12:01:41;35.65;;;18.67;;
40511;SDS011;26213;52.446;20.706;2022-12-11T12:04:08;45.28;;;26.55;;
40511;SDS011;26213;52.446;20.706;2022-12-11T12:06:42;52.22;;;29.25;;
40511;SDS011;26213;52.446;20.706;2022-12-11T12:14:48;50.33;;;19.88;;
40511;SDS011;26213;52.446;20.706;2022-12-11T12:20:17;25.20;;;14.13;;
40511;SDS011;26213;52.446;20.706;2022-12-11T12:25:15;41.47;;;22.35;;
40511;SDS011;26213;52.446;20.706;2022-12-11T12:28:02;33.72;;;18.15;;
40511;SDS011;26213;52.446;20.706;2022-12-11T12:30:37;30.67;;;17.33;;
40511;SDS011;26213;52.446;20.706;2022-12-11T12:33:24;33.30;;;21.65;;
40511;SDS011;26213;52.446;20.706;2022-12-11T12:36:16;24.98;;;12.77;;
40511;SDS011;26213;52.446;20.706;2022-12-11T12:38:51;39.40;;;22.90;;
40511;SDS011;26213;52.446;20.706;2022-12-11T12:41:32;127.72;;;74.30;;
40511;SDS011;26213;52.446;20.706;2022-12-11T12:44:06;150.93;;;70.88;;
40511;SDS011;26213;52.446;20.706;2022-12-11T12:46:51;158.48;;;75.75;;
40511;SDS011;26213;52.446;20.706;2022-12-11T12:52:04;76.57;;;44.85;;
40511;SDS011;26213;52.446;20.706;2022-12-11T12:54:35;86.75;;;51.00;;
40511;SDS011;26213;52.446;20.706;2022-12-11T12:57:02;60.42;;;39.65;;
40511;SDS011;26213;52.446;20.706;2022-12-11T12:59:28;53.75;;;31.75;;
40511;SDS011;26213;52.446;20.706;2022-12-11T13:02:00;41.80;;;27.95;;
40511;SDS011;26213;52.446;20.706;2022-12-11T13:04:28;59.20;;;35.15;;
40511;SDS011;26213;52.446;20.706;2022-12-11T13:06:55;48.20;;;27.30;;
40511;SDS011;26213;52.446;20.706;2022-12-11T13:09:21;47.58;;;22.33;;
40511;SDS011;26213;52.446;20.706;2022-12-11T13:11:51;48.75;;;28.52;;
40511;SDS011;26213;52.446;20.706;2022-12-11T13:16:48;86.07;;;48.08;;
40511;SDS011;26213;52.446;20.706;2022-12-11T13:22:02;46.10;;;25.10;;
40511;SDS011;26213;52.446;20.706;2022-12-11T13:24:46;42.67;;;22.65;;
40511;SDS011;26213;52.446;20.706;2022-12-11T13:30:19;34.80;;;18.88;;
40511;SDS011;26213;52.446;20.706;2022-12-11T13:35:24;75.03;;;34.85;;
40511;SDS011;26213;52.446;20.706;2022-12-11T13:37:50;27.08;;;16.63;;
40511;SDS011;26213;52.446;20.706;2022-12-11T13:40:27;35.15;;;16.35;;
40511;SDS011;26213;52.446;20.706;2022-12-11T13:43:01;35.25;;;20.05;;
40511;SDS011;26213;52.446;20.706;2022-12-11T13:45:38;41.80;;;20.63;;
40511;SDS011;26213;52.446;20.706;2022-12-11T13:48:28;39.63;;;18.35;;
40511;SDS011;26213;52.446;20.706;2022-12-11T13:50:56;36.75;;;19.42;;
40511;SDS011;26213;52.446;20.706;2022-12-11T13:53:23;51.83;;;30.27;;
40511;SDS011;26213;52.446;20.706;2022-12-11T13:55:55;97.22;;;52.47;;
40511;SDS011;26213;52.446;20.706;2022-12-11T13:58:34;125.75;;;62.45;;
40511;SDS011;26213;52.446;20.706;2022-12-11T14:03:59;71.47;;;40.17;;
40511;SDS011;26213;52.446;20.706;2022-12-11T14:06:26;77.45;;;35.65;;
40511;SDS011;26213;52.446;20.706;2022-12-11T14:08:53;94.60;;;37.10;;
40511;SDS011;26213;52.446;20.706;2022-12-11T14:11:21;152.80;;;53.83;;
40511;SDS011;26213;52.446;20.706;2022-12-11T14:13:48;166.95;;;61.58;;
40511;SDS011;26213;52.446;20.706;2022-12-11T14:16:21;72.22;;;32.00;;
40511;SDS011;26213;52.446;20.706;2022-12-11T14:18:47;176.18;;;72.90;;
40511;SDS011;26213;52.446;20.706;2022-12-11T14:21:23;123.28;;;51.47;;
40511;SDS011;26213;52.446;20.706;2022-12-11T14:23:54;138.02;;;58.95;;
40511;SDS011;26213;52.446;20.706;2022-12-11T14:28:53;92.03;;;48.55;;
40511;SDS011;26213;52.446;20.706;2022-12-11T14:31:24;107.35;;;46.83;;
40511;SDS011;26213;52.446;20.706;2022-12-11T14:34:02;92.32;;;43.67;;
40511;SDS011;26213;52.446;20.706;2022-12-11T14:36:39;56.80;;;26.73;;
40511;SDS011;26213;52.446;20.706;2022-12-11T14:39:06;113.03;;;49.35;;
40511;SDS011;26213;52.446;20.706;2022-12-11T14:41:50;80.97;;;38.20;;
40511;SDS011;26213;52.446;20.706;2022-12-11T14:44:49;84.30;;;45.00;;
40511;SDS011;26213;52.446;20.706;2022-12-11T14:47:19;67.60;;;29.58;;
40511;SDS011;26213;52.446;20.706;2022-12-11T14:49:52;93.68;;;37.78;;
40511;SDS011;26213;52.446;20.706;2022-12-11T14:52:24;54.00;;;26.50;;
40511;SDS011;26213;52.446;20.706;2022-12-11T14:55:05;127.43;;;47.05;;
40511;SDS011;26213;52.446;20.706;2022-12-11T14:57:33;104.95;;;46.03;;
40511;SDS011;26213;52.446;20.706;2022-12-11T15:00:00;76.88;;;30.33;;
40511;SDS011;26213;52.446;20.706;2022-12-11T15:05:18;112.72;;;47.90;;
40511;SDS011;26213;52.446;20.706;2022-12-11T15:07:53;135.93;;;54.40;;
40511;SDS011;26213;52.446;20.706;2022-12-11T15:10:30;48.10;;;22.65;;
40511;SDS011;26213;52.446;20.706;2022-12-11T15:13:00;62.25;;;24.33;;
40511;SDS011;26213;52.446;20.706;2022-12-11T15:15:27;46.78;;;20.95;;
40511;SDS011;26213;52.446;20.706;2022-12-11T15:17:55;45.35;;;19.83;;
40511;SDS011;26213;52.446;20.706;2022-12-11T15:20:25;72.20;;;31.50;;
40511;SDS011;26213;52.446;20.706;2022-12-11T15:22:53;71.78;;;32.92;;
40511;SDS011;26213;52.446;20.706;2022-12-11T15:25:21;38.65;;;17.20;;
40511;SDS011;26213;52.446;20.706;2022-12-11T15:35:36;56.38;;;22.85;;
40511;SDS011;26213;52.446;20.706;2022-12-11T15:38:02;71.10;;;38.83;;
40511;SDS011;26213;52.446;20.706;2022-12-11T15:40:28;103.57;;;49.78;;
40511;SDS011;26213;52.446;20.706;2022-12-11T15:42:54;114.13;;;59.22;;
40511;SDS011;26213;52.446;20.706;2022-12-11T15:45:21;84.40;;;44.05;;
40511;SDS011;26213;52.446;20.706;2022-12-11T15:47:50;169.18;;;77.15;;
40511;SDS011;26213;52.446;20.706;2022-12-11T15:52:47;115.30;;;62.38;;
40511;SDS011;26213;52.446;20.706;2022-12-11T15:55:13;112.78;;;56.35;;
40511;SDS011;26213;52.446;20.706;2022-12-11T15:57:42;48.05;;;24.63;;
40511;SDS011;26213;52.446;20.706;2022-12-11T16:00:16;45.25;;;22.50;;
40511;SDS011;26213;52.446;20.706;2022-12-11T16:02:45;31.40;;;14.85;;
40511;SDS011;26213;52.446;20.706;2022-12-11T16:05:12;44.67;;;24.52;;